sensor_id;sensor_type;location;lat;lon;timestamp;P1;durP1;ratioP1;P2;durP2;ratioP2
6902;SDS011;20232;49.408;8.702;2022-12-18T05:00:51;79.77;;;38.57;;
6902;SDS011;20232;49.408;8.702;2022-12-18T05:03:17;93.90;;;40.90;;
6902;SDS011;20232;49.408;8.702;2022-12-18T05:05:43;81.77;;;38.57;;
6902;SDS011;20232;49.408;8.702;2022-12-18T05:08:09;79.07;;;38.20;;
6902;SDS011;20232;49.408;8.702;2022-12-18T05:10:35;82.60;;;38.93;;
6902;SDS011;20232;49.408;8.702;2022-12-18T05:13:01;85.07;;;39.90;;
6902;SDS011;20232;49.408;8.702;2022-12-18T05:15:28;84.73;;;37.70;;
6902;SDS011;20232;49.408;8.702;2022-12-18T05:17:55;85.57;;;38.15;;
6902;SDS011;20232;49.408;8.702;2022-12-18T05:20:21;78.13;;;37.60;;
6902;SDS011;20232;49.408;8.702;2022-12-18T05:22:47;87.33;;;39.63;;
6902;SDS011;20232;49.408;8.702;2022-12-18T05:25:13;80.55;;;38.25;;
6902;SDS011;20232;49.408;8.702;2022-12-18T05:27:39;99.50;;;42.10;;
6902;SDS011;20232;49.408;8.702;2022-12-18T05:30:05;88.23;;;40.97;;
6902;SDS011;20232;49.408;8.702;2022-12-18T05:32:31;91.65;;;40.65;;
6902;SDS011;20232;49.408;8.702;2022-12-18T05:34:57;86.63;;;39.20;;
6902;SDS011;20232;49.408;8.702;2022-12-18T05:37:23;85.30;;;39.57;;
6902;SDS011;20232;49.408;8.702;2022-12-18T05:39:49;85.67;;;41.03;;
6902;SDS011;20232;49.408;8.702;2022-12-18T05:42:15;84.23;;;40.33;;
6902;SDS011;20232;49.408;8.702;2022-12-18T05:44:41;80.18;;;37.70;;
6902;SDS011;20232;49.408;8.702;2022-12-18T05:47:07;83.60;;;40.27;;
6902;SDS011;20232;49.408;8.702;2022-12-18T05:49:33;89.23;;;39.57;;
6902;SDS011;20232;49.408;8.702;2022-12-18T05:51:59;85.38;;;39.33;;
6902;SDS011;20232;49.408;8.702;2022-12-18T05:54:26;85.05;;;38.85;;
6902;SDS011;20232;49.408;8.702;2022-12-18T05:56:52;83.95;;;39.20;;
6902;SDS011;20232;49.408;8.702;2022-12-18T05:59:19;77.95;;;36.75;;
6902;SDS011;20232;49.408;8.702;2022-12-18T06:01:45;69.68;;;37.17;;
6902;SDS011;20232;49.408;8.702;2022-12-18T06:04:11;79.75;;;39.80;;
6902;SDS011;20232;49.408;8.702;2022-12-18T06:06:37;76.72;;;39.55;;
6902;SDS011;20232;49.408;8.702;2022-12-18T06:09:03;70.53;;;38.17;;
6902;SDS011;20232;49.408;8.702;2022-12-18T06:11:35;75.93;;;39.30;;
6902;SDS011;20232;49.408;8.702;2022-12-18T06:14:01;74.65;;;40.28;;
6902;SDS011;20232;49.408;8.702;2022-12-18T06:16:27;68.97;;;38.40;;
6902;SDS011;20232;49.408;8.702;2022-12-18T06:18:55;69.68;;;39.83;;
6902;SDS011;20232;49.408;8.702;2022-12-18T06:21:21;64.50;;;37.83;;
6902;SDS011;20232;49.408;8.702;2022-12-18T06:23:47;66.43;;;38.20;;
6902;SDS011;20232;49.408;8.702;2022-12-18T06:26:13;61.07;;;37.37;;
6902;SDS011;20232;49.408;8.702;2022-12-18T06:28:40;66.33;;;38.53;;
6902;SDS011;20232;49.408;8.702;2022-12-18T06:31:06;61.50;;;35.50;;
6902;SDS011;20232;49.408;8.702;2022-12-18T06:33:32;72.93;;;38.00;;
6902;SDS011;20232;49.408;8.702;2022-12-18T06:35:59;72.53;;;37.63;;
6902;SDS011;20232;49.408;8.702;2022-12-18T06:38:26;67.22;;;35.67;;
6902;SDS011;20232;49.408;8.702;2022-12-18T06:40:52;67.17;;;35.73;;
6902;SDS011;20232;49.408;8.702;2022-12-18T06:43:18;68.37;;;36.60;;
6902;SDS011;20232;49.408;8.702;2022-12-18T06:45:44;71.00;;;35.27;;
6902;SDS011;20232;49.408;8.702;2022-12-18T06:48:11;73.85;;;35.75;;
6902;SDS011;20232;49.408;8.702;2022-12-18T06:50:37;73.70;;;34.73;;
6902;SDS011;20232;49.408;8.702;2022-12-18T06:53:03;64.07;;;33.67;;
6902;SDS011;20232;49.408;8.702;2022-12-18T06:55:28;69.27;;;34.17;;
6902;SDS011;20232;49.408;8.702;2022-12-18T06:57:54;73.97;;;35.47;;
6902;SDS011;20232;49.408;8.702;2022-12-18T07:00:19;87.67;;;36.47;;
6902;SDS011;20232;49.408;8.702;2022-12-18T07:02:45;70.27;;;35.03;;
6902;SDS011;20232;49.408;8.702;2022-12-18T07:05:11;89.47;;;36.97;;
6902;SDS011;20232;49.408;8.702;2022-12-18T07:07:37;71.80;;;34.60;;
6902;SDS011;20232;49.408;8.702;2022-12-18T07:10:02;76.47;;;36.67;;
6902;SDS011;20232;49.408;8.702;2022-12-18T07:12:28;92.95;;;37.10;;
6902;SDS011;20232;49.408;8.702;2022-12-18T07:14:54;74.60;;;36.93;;
6902;SDS011;20232;49.408;8.702;2022-12-18T07:17:19;79.20;;;35.73;;
6902;SDS011;20232;49.408;8.702;2022-12-18T07:19:45;81.73;;;37.80;;
6902;SDS011;20232;49.408;8.702;2022-12-18T07:22:11;76.10;;;37.63;;
6902;SDS011;20232;49.408;8.702;2022-12-18T07:24:36;78.07;;;38.10;;
6902;SDS011;20232;49.408;8.702;2022-12-18T07:27:02;77.47;;;36.40;;
6902;SDS011;20232;49.408;8.702;2022-12-18T07:29:27;75.80;;;37.30;;
6902;SDS011;20232;49.408;8.702;2022-12-18T07:31:53;78.93;;;36.83;;
6902;SDS011;20232;49.408;8.702;2022-12-18T07:34:18;83.73;;;37.67;;
6902;SDS011;20232;49.408;8.702;2022-12-18T07:36:44;83.93;;;38.03;;
6902;SDS011;20232;49.408;8.702;2022-12-18T07:39:12;85.23;;;38.87;;
6902;SDS011;20232;49.408;8.702;2022-12-18T07:41:38;84.57;;;39.22;;
6902;SDS011;20232;49.408;8.702;2022-12-18T07:44:09;82.30;;;39.08;;
6902;SDS011;20232;49.408;8.702;2022-12-18T07:46:35;84.78;;;38.90;;
6902;SDS011;20232;49.408;8.702;2022-12-18T07:49:01;87.17;;;38.97;;
6902;SDS011;20232;49.408;8.702;2022-12-18T07:51:26;77.43;;;39.03;;
6902;SDS011;20232;49.408;8.702;2022-12-18T07:53:52;62.53;;;32.67;;
6902;SDS011;20232;49.408;8.702;2022-12-18T07:56:17;71.20;;;38.40;;
6902;SDS011;20232;49.408;8.702;2022-12-18T07:58:43;56.97;;;30.77;;
6902;SDS011;20232;49.408;8.702;2022-12-18T08:01:12;58.93;;;34.60;;
6902;SDS011;20232;49.408;8.702;2022-12-18T08:03:39;43.58;;;24.35;;
6902;SDS011;20232;49.408;8.702;2022-12-18T08:06:06;40.60;;;22.80;;
6902;SDS011;20232;49.408;8.702;2022-12-18T08:08:32;40.33;;;21.53;;
6902;SDS011;20232;49.408;8.702;2022-12-18T08:10:59;40.23;;;21.23;;
6902;SDS011;20232;49.408;8.702;2022-12-18T08:13:25;39.83;;;22.97;;
6902;SDS011;20232;49.408;8.702;2022-12-18T08:15:58;37.13;;;22.27;;
6902;SDS011;20232;49.408;8.702;2022-12-18T08:18:25;47.53;;;26.73;;
6902;SDS011;20232;49.408;8.702;2022-12-18T08:20:51;38.20;;;21.17;;
6902;SDS011;20232;49.408;8.702;2022-12-18T08:23:16;43.87;;;24.50;;
6902;SDS011;20232;49.408;8.702;2022-12-18T08:25:42;34.00;;;18.83;;
6902;SDS011;20232;49.408;8.702;2022-12-18T08:28:08;39.65;;;23.08;;
6902;SDS011;20232;49.408;8.702;2022-12-18T08:30:35;46.77;;;28.13;;
6902;SDS011;20232;49.408;8.702;2022-12-18T08:33:00;44.77;;;26.70;;
6902;SDS011;20232;49.408;8.702;2022-12-18T08:35:26;44.03;;;26.97;;
6902;SDS011;20232;49.408;8.702;2022-12-18T08:37:52;40.93;;;23.10;;
6902;SDS011;20232;49.408;8.702;2022-12-18T08:40:17;35.73;;;21.17;;
6902;SDS011;20232;49.408;8.702;2022-12-18T08:42:43;35.67;;;20.77;;
6902;SDS011;20232;49.408;8.702;2022-12-18T08:45:27;34.73;;;18.33;;
6902;SDS011;20232;49.408;8.702;2022-12-18T08:47:52;25.73;;;16.13;;
6902;SDS011;20232;49.408;8.702;2022-12-18T08:50:18;33.83;;;18.50;;
6902;SDS011;20232;49.408;8.702;2022-12-18T08:52:45;41.83;;;25.67;;
6902;SDS011;20232;49.408;8.702;2022-12-18T08:55:10;36.40;;;21.23;;
6902;SDS011;20232;49.408;8.702;2022-12-18T08:57:36;42.63;;;21.90;;
6902;SDS011;20232;49.408;8.702;2022-12-18T09:00:02;41.03;;;22.83;;
6902;SDS011;20232;49.408;8.702;2022-12-18T09:02:28;37.97;;;22.33;;
6902;SDS011;20232;49.408;8.702;2022-12-18T09:04:54;26.97;;;15.83;;
6902;SDS011;20232;49.408;8.702;2022-12-18T09:07:19;39.77;;;19.43;;
6902;SDS011;20232;49.408;8.702;2022-12-18T09:09:45;37.50;;;21.10;;
6902;SDS011;20232;49.408;8.702;2022-12-18T09:12:10;33.97;;;19.80;;
6902;SDS011;20232;49.408;8.702;2022-12-18T09:14:36;30.00;;;17.60;;
6902;SDS011;20232;49.408;8.702;2022-12-18T09:17:02;34.87;;;19.60;;
6902;SDS011;20232;49.408;8.702;2022-12-18T09:19:27;37.50;;;21.87;;
6902;SDS011;20232;49.408;8.702;2022-12-18T09:21:53;38.27;;;20.97;;
6902;SDS011;20232;49.408;8.702;2022-12-18T09:24:18;33.83;;;20.00;;
6902;SDS011;20232;49.408;8.702;2022-12-18T09:26:44;42.57;;;21.67;;
6902;SDS011;20232;49.408;8.702;2022-12-18T09:29:09;34.40;;;20.80;;
6902;SDS011;20232;49.408;8.702;2022-12-18T09:31:35;39.33;;;22.23;;
6902;SDS011;20232;49.408;8.702;2022-12-18T09:34:01;38.47;;;21.13;;
6902;SDS011;20232;49.408;8.702;2022-12-18T09:36:30;47.87;;;27.43;;
6902;SDS011;20232;49.408;8.702;2022-12-18T09:38:55;44.40;;;26.87;;
6902;SDS011;20232;49.408;8.702;2022-12-18T09:44:16;47.37;;;27.37;;
6902;SDS011;20232;49.408;8.702;2022-12-18T09:46:54;40.83;;;21.73;;
6902;SDS011;20232;49.408;8.702;2022-12-18T09:49:34;44.50;;;25.60;;
6902;SDS011;20232;49.408;8.702;2022-12-18T09:52:27;35.07;;;19.00;;
6902;SDS011;20232;49.408;8.702;2022-12-18T09:55:00;31.87;;;19.33;;
6902;SDS011;20232;49.408;8.702;2022-12-18T09:57:46;36.03;;;20.07;;
6902;SDS011;20232;49.408;8.702;2022-12-18T10:00:16;46.03;;;24.37;;
6902;SDS011;20232;49.408;8.702;2022-12-18T10:02:44;36.87;;;19.27;;
6902;SDS011;20232;49.408;8.702;2022-12-18T10:05:16;37.37;;;20.57;;
6902;SDS011;20232;49.408;8.702;2022-12-18T10:10:32;39.70;;;21.73;;
6902;SDS011;20232;49.408;8.702;2022-12-18T10:13:18;41.27;;;23.90;;
6902;SDS011;20232;49.408;8.702;2022-12-18T10:19:00;44.33;;;23.37;;
6902;SDS011;20232;49.408;8.702;2022-12-18T10:21:41;46.60;;;25.17;;
6902;SDS011;20232;49.408;8.702;2022-12-18T10:24:32;49.87;;;26.83;;
6902;SDS011;20232;49.408;8.702;2022-12-18T10:27:21;45.60;;;27.73;;
6902;SDS011;20232;49.408;8.702;2022-12-18T10:29:48;50.53;;;27.60;;
6902;SDS011;20232;49.408;8.702;2022-12-18T10:32:18;49.83;;;29.77;;
6902;SDS011;20232;49.408;8.702;2022-12-18T10:34:47;51.07;;;28.93;;
6902;SDS011;20232;49.408;8.702;2022-12-18T10:37:18;49.07;;;28.07;;
6902;SDS011;20232;49.408;8.702;2022-12-18T10:39:46;47.67;;;28.33;;
6902;SDS011;20232;49.408;8.702;2022-12-18T10:42:30;42.40;;;23.50;;
6902;SDS011;20232;49.408;8.702;2022-12-18T10:45:15;57.07;;;31.87;;
6902;SDS011;20232;49.408;8.702;2022-12-18T10:47:46;49.93;;;28.23;;
6902;SDS011;20232;49.408;8.702;2022-12-18T10:50:23;42.50;;;25.20;;
6902;SDS011;20232;49.408;8.702;2022-12-18T10:52:55;48.67;;;27.43;;
6902;SDS011;20232;49.408;8.702;2022-12-18T10:55:22;48.63;;;25.73;;
6902;SDS011;20232;49.408;8.702;2022-12-18T10:57:48;48.63;;;28.63;;
6902;SDS011;20232;49.408;8.702;2022-12-18T11:00:22;48.40;;;27.63;;
6902;SDS011;20232;49.408;8.702;2022-12-18T11:02:56;46.83;;;27.93;;
6902;SDS011;20232;49.408;8.702;2022-12-18T11:05:23;53.47;;;28.90;;
6902;SDS011;20232;49.408;8.702;2022-12-18T11:07:51;47.03;;;28.57;;
6902;SDS011;20232;49.408;8.702;2022-12-18T11:10:20;48.13;;;27.60;;
6902;SDS011;20232;49.408;8.702;2022-12-18T11:12:50;47.57;;;28.53;;
6902;SDS011;20232;49.408;8.702;2022-12-18T11:15:19;46.30;;;27.23;;
6902;SDS011;20232;49.408;8.702;2022-12-18T11:17:48;43.67;;;27.20;;
6902;SDS011;20232;49.408;8.702;2022-12-18T11:20:20;44.90;;;25.87;;
6902;SDS011;20232;49.408;8.702;2022-12-18T11:22:59;43.00;;;25.97;;
6902;SDS011;20232;49.408;8.702;2022-12-18T11:25:30;44.10;;;26.43;;
6902;SDS011;20232;49.408;8.702;2022-12-18T11:27:59;44.53;;;24.30;;
6902;SDS011;20232;49.408;8.702;2022-12-18T11:30:28;47.47;;;27.43;;
6902;SDS011;20232;49.408;8.702;2022-12-18T11:33:06;40.13;;;22.53;;
6902;SDS011;20232;49.408;8.702;2022-12-18T11:35:40;42.90;;;26.53;;
6902;SDS011;20232;49.408;8.702;2022-12-18T11:38:40;46.80;;;27.80;;
6902;SDS011;20232;49.408;8.702;2022-12-18T11:44:24;46.03;;;27.13;;
6902;SDS011;20232;49.408;8.702;2022-12-18T11:46:55;44.77;;;27.30;;
6902;SDS011;20232;49.408;8.702;2022-12-18T11:49:26;44.97;;;26.07;;
6902;SDS011;20232;49.408;8.702;2022-12-18T11:51:59;50.80;;;29.83;;
6902;SDS011;20232;49.408;8.702;2022-12-18T11:54:34;48.03;;;27.70;;
6902;SDS011;20232;49.408;8.702;2022-12-18T12:09:00;51.27;;;29.23;;
6902;SDS011;20232;49.408;8.702;2022-12-18T12:17:13;49.20;;;29.57;;
6902;SDS011;20232;49.408;8.702;2022-12-18T12:30:40;47.57;;;25.83;;
6902;SDS011;20232;49.408;8.702;2022-12-18T12:33:24;47.83;;;26.60;;
6902;SDS011;20232;49.408;8.702;2022-12-18T12:38:57;47.10;;;27.80;;
6902;SDS011;20232;49.408;8.702;2022-12-18T12:41:27;46.67;;;26.53;;
6902;SDS011;20232;49.408;8.702;2022-12-18T12:44:17;46.70;;;26.57;;
6902;SDS011;20232;49.408;8.702;2022-12-18T12:46:49;46.03;;;24.93;;
6902;SDS011;20232;49.408;8.702;2022-12-18T12:49:17;38.37;;;22.87;;
6902;SDS011;20232;49.408;8.702;2022-12-18T12:55:00;44.43;;;25.23;;
6902;SDS011;20232;49.408;8.702;2022-12-18T12:57:30;42.73;;;24.13;;
6902;SDS011;20232;49.408;8.702;2022-12-18T13:00:05;39.27;;;23.33;;
6902;SDS011;20232;49.408;8.702;2022-12-18T13:08:11;45.73;;;23.57;;
6902;SDS011;20232;49.408;8.702;2022-12-18T13:10:47;44.80;;;24.00;;
6902;SDS011;20232;49.408;8.702;2022-12-18T13:13:13;50.13;;;29.60;;
6902;SDS011;20232;49.408;8.702;2022-12-18T13:15:44;50.63;;;25.80;;
6902;SDS011;20232;49.408;8.702;2022-12-18T13:18:16;59.30;;;31.47;;
6902;SDS011;20232;49.408;8.702;2022-12-18T13:31:15;50.73;;;27.93;;
6902;SDS011;20232;49.408;8.702;2022-12-18T13:34:16;46.87;;;26.67;;
6902;SDS011;20232;49.408;8.702;2022-12-18T13:36:43;43.20;;;23.63;;
6902;SDS011;20232;49.408;8.702;2022-12-18T13:41:38;39.63;;;22.93;;
6902;SDS011;20232;49.408;8.702;2022-12-18T13:44:11;39.33;;;20.53;;
6902;SDS011;20232;49.408;8.702;2022-12-18T13:46:47;49.03;;;27.47;;
6902;SDS011;20232;49.408;8.702;2022-12-18T13:49:20;45.23;;;25.47;;
6902;SDS011;20232;49.408;8.702;2022-12-18T13:52:41;45.23;;;24.23;;
6902;SDS011;20232;49.408;8.702;2022-12-18T13:55:01;49.63;;;27.63;;
6902;SDS011;20232;49.408;8.702;2022-12-18T13:59:57;45.90;;;26.53;;
6902;SDS011;20232;49.408;8.702;2022-12-18T14:02:24;44.67;;;25.23;;
6902;SDS011;20232;49.408;8.702;2022-12-18T14:04:52;48.30;;;27.57;;
6902;SDS011;20232;49.408;8.702;2022-12-18T14:07:19;46.10;;;26.00;;
6902;SDS011;20232;49.408;8.702;2022-12-18T14:09:52;45.77;;;26.17;;
6902;SDS011;20232;49.408;8.702;2022-12-18T14:12:24;47.23;;;27.70;;
6902;SDS011;20232;49.408;8.702;2022-12-18T14:15:26;45.90;;;27.90;;
6902;SDS011;20232;49.408;8.702;2022-12-18T14:18:20;47.60;;;26.50;;
6902;SDS011;20232;49.408;8.702;2022-12-18T14:21:05;45.07;;;25.43;;
6902;SDS011;20232;49.408;8.702;2022-12-18T14:23:40;46.53;;;26.33;;
6902;SDS011;20232;49.408;8.702;2022-12-18T14:26:20;45.17;;;25.63;;
6902;SDS011;20232;49.408;8.702;2022-12-18T14:28:52;49.57;;;29.03;;
6902;SDS011;20232;49.408;8.702;2022-12-18T14:31:23;46.50;;;28.10;;
6902;SDS011;20232;49.408;8.702;2022-12-18T14:33:55;47.13;;;25.57;;
6902;SDS011;20232;49.408;8.702;2022-12-18T14:36:22;48.50;;;27.00;;
6902;SDS011;20232;49.408;8.702;2022-12-18T14:38:51;48.00;;;27.30;;
6902;SDS011;20232;49.408;8.702;2022-12-18T14:41:19;48.50;;;27.57;;
6902;SDS011;20232;49.408;8.702;2022-12-18T14:43:52;48.03;;;27.53;;
6902;SDS011;20232;49.408;8.702;2022-12-18T14:46:29;45.10;;;26.20;;
6902;SDS011;20232;49.408;8.702;2022-12-18T14:48:56;46.70;;;25.77;;
6902;SDS011;20232;49.408;8.702;2022-12-18T14:51:23;44.07;;;26.17;;
6902;SDS011;20232;49.408;8.702;2022-12-18T14:54:03;47.97;;;26.67;;
6902;SDS011;20232;49.408;8.702;2022-12-18T14:56:43;49.07;;;27.67;;
6902;SDS011;20232;49.408;8.702;2022-12-18T14:59:20;41.53;;;22.53;;
6902;SDS011;20232;49.408;8.702;2022-12-18T15:04:31;48.87;;;28.23;;
6902;SDS011;20232;49.408;8.702;2022-12-18T15:07:04;42.93;;;23.60;;
6902;SDS011;20232;49.408;8.702;2022-12-18T15:10:11;41.77;;;22.70;;
6902;SDS011;20232;49.408;8.702;2022-12-18T15:26:03;41.17;;;22.13;;
6902;SDS011;20232;49.408;8.702;2022-12-18T15:28:38;46.80;;;22.87;;
6902;SDS011;20232;49.408;8.702;2022-12-18T15:33:44;49.67;;;28.30;;
6902;SDS011;20232;49.408;8.702;2022-12-18T15:36:17;53.17;;;25.40;;
6902;SDS011;20232;49.408;8.702;2022-12-18T15:38:47;50.60;;;25.27;;
6902;SDS011;20232;49.408;8.702;2022-12-18T15:41:14;46.97;;;25.37;;
6902;SDS011;20232;49.408;8.702;2022-12-18T15:43:42;45.63;;;24.80;;
6902;SDS011;20232;49.408;8.702;2022-12-18T15:46:12;52.00;;;24.30;;
6902;SDS011;20232;49.408;8.702;2022-12-18T15:48:40;46.43;;;25.37;;
6902;SDS011;20232;49.408;8.702;2022-12-18T15:51:11;46.07;;;24.30;;
6902;SDS011;20232;49.408;8.702;2022-12-18T15:53:43;40.40;;;23.63;;
6902;SDS011;20232;49.408;8.702;2022-12-18T15:56:10;45.30;;;25.27;;
6902;SDS011;20232;49.408;8.702;2022-12-18T15:58:55;47.27;;;25.73;;
6902;SDS011;20232;49.408;8.702;2022-12-18T16:01:22;44.73;;;23.73;;
6902;SDS011;20232;49.408;8.702;2022-12-18T16:03:49;42.17;;;23.00;;
6902;SDS011;20232;49.408;8.702;2022-12-18T16:06:18;37.00;;;20.23;;
6902;SDS011;20232;49.408;8.702;2022-12-18T16:08:44;43.97;;;21.50;;
6902;SDS011;20232;49.408;8.702;2022-12-18T16:11:31;41.10;;;21.33;;
6902;SDS011;20232;49.408;8.702;2022-12-18T16:16:51;40.47;;;21.17;;
6902;SDS011;20232;49.408;8.702;2022-12-18T16:19:22;44.63;;;24.97;;
6902;SDS011;20232;49.408;8.702;2022-12-18T16:21:49;62.73;;;34.80;;
6902;SDS011;20232;49.408;8.702;2022-12-18T16:24:20;48.17;;;27.70;;
6902;SDS011;20232;49.408;8.702;2022-12-18T16:26:47;47.63;;;24.27;;
6902;SDS011;20232;49.408;8.702;2022-12-18T16:29:13;43.17;;;22.27;;
6902;SDS011;20232;49.408;8.702;2022-12-18T16:31:39;48.23;;;27.43;;
6902;SDS011;20232;49.408;8.702;2022-12-18T16:34:15;42.33;;;24.80;;
6902;SDS011;20232;49.408;8.702;2022-12-18T16:36:49;42.10;;;24.27;;
6902;SDS011;20232;49.408;8.702;2022-12-18T16:39:15;44.20;;;26.80;;
6902;SDS011;20232;49.408;8.702;2022-12-18T16:41:41;48.17;;;26.40;;
6902;SDS011;20232;49.408;8.702;2022-12-18T16:44:07;36.60;;;19.67;;
6902;SDS011;20232;49.408;8.702;2022-12-18T16:46:33;44.20;;;23.77;;
6902;SDS011;20232;49.408;8.702;2022-12-18T16:48:59;46.43;;;25.67;;
6902;SDS011;20232;49.408;8.702;2022-12-18T16:51:25;40.30;;;22.00;;
6902;SDS011;20232;49.408;8.702;2022-12-18T16:53:52;38.57;;;22.47;;
6902;SDS011;20232;49.408;8.702;2022-12-18T16:56:19;40.00;;;23.33;;
6902;SDS011;20232;49.408;8.702;2022-12-18T16:58:51;39.07;;;23.13;;
6902;SDS011;20232;49.408;8.702;2022-12-18T17:01:21;43.40;;;22.30;;
6902;SDS011;20232;49.408;8.702;2022-12-18T17:03:51;41.07;;;25.20;;
6902;SDS011;20232;49.408;8.702;2022-12-18T17:06:21;40.43;;;23.50;;
6902;SDS011;20232;49.408;8.702;2022-12-18T17:08:48;46.20;;;23.07;;
6902;SDS011;20232;49.408;8.702;2022-12-18T17:11:19;38.90;;;22.77;;
6902;SDS011;20232;49.408;8.702;2022-12-18T17:13:45;40.93;;;23.27;;
6902;SDS011;20232;49.408;8.702;2022-12-18T17:16:10;41.97;;;23.23;;
6902;SDS011;20232;49.408;8.702;2022-12-18T17:18:36;36.00;;;20.17;;
6902;SDS011;20232;49.408;8.702;2022-12-18T17:21:03;46.07;;;27.03;;
6902;SDS011;20232;49.408;8.702;2022-12-18T17:23:33;46.00;;;26.13;;
6902;SDS011;20232;49.408;8.702;2022-12-18T17:25:59;43.33;;;25.47;;
6902;SDS011;20232;49.408;8.702;2022-12-18T17:28:24;40.70;;;23.73;;
6902;SDS011;20232;49.408;8.702;2022-12-18T17:30:51;42.30;;;26.47;;
6902;SDS011;20232;49.408;8.702;2022-12-18T17:33:18;49.93;;;27.53;;
6902;SDS011;20232;49.408;8.702;2022-12-18T17:35:43;46.17;;;27.07;;
6902;SDS011;20232;49.408;8.702;2022-12-18T17:38:12;38.53;;;21.63;;
6902;SDS011;20232;49.408;8.702;2022-12-18T17:40:38;43.20;;;23.77;;
6902;SDS011;20232;49.408;8.702;2022-12-18T17:43:07;37.93;;;20.43;;
6902;SDS011;20232;49.408;8.702;2022-12-18T17:45:37;40.30;;;21.70;;
6902;SDS011;20232;49.408;8.702;2022-12-18T17:48:03;40.67;;;21.30;;
6902;SDS011;20232;49.408;8.702;2022-12-18T17:50:31;38.77;;;20.10;;
6902;SDS011;20232;49.408;8.702;2022-12-18T17:52:57;45.10;;;24.97;;
6902;SDS011;20232;49.408;8.702;2022-12-18T17:55:23;38.20;;;21.40;;
6902;SDS011;20232;49.408;8.702;2022-12-18T17:57:49;36.20;;;19.37;;
6902;SDS011;20232;49.408;8.702;2022-12-18T18:00:15;46.83;;;26.23;;
6902;SDS011;20232;49.408;8.702;2022-12-18T18:02:41;40.73;;;23.67;;
6902;SDS011;20232;49.408;8.702;2022-12-18T18:05:06;44.93;;;24.50;;
6902;SDS011;20232;49.408;8.702;2022-12-18T18:07:32;35.70;;;19.97;;
6902;SDS011;20232;49.408;8.702;2022-12-18T18:09:58;37.23;;;19.53;;
6902;SDS011;20232;49.408;8.702;2022-12-18T18:12:24;38.80;;;22.23;;
6902;SDS011;20232;49.408;8.702;2022-12-18T18:15:08;33.37;;;18.87;;
6902;SDS011;20232;49.408;8.702;2022-12-18T18:17:34;37.23;;;19.87;;
6902;SDS011;20232;49.408;8.702;2022-12-18T18:19:59;38.47;;;21.87;;
6902;SDS011;20232;49.408;8.702;2022-12-18T18:22:25;44.70;;;24.57;;
6902;SDS011;20232;49.408;8.702;2022-12-18T18:24:50;37.47;;;21.53;;
6902;SDS011;20232;49.408;8.702;2022-12-18T18:27:16;36.20;;;20.57;;
6902;SDS011;20232;49.408;8.702;2022-12-18T18:29:42;36.57;;;20.10;;
6902;SDS011;20232;49.408;8.702;2022-12-18T18:32:07;38.80;;;22.10;;
6902;SDS011;20232;49.408;8.702;2022-12-18T18:34:33;37.90;;;22.80;;
6902;SDS011;20232;49.408;8.702;2022-12-18T18:36:59;42.17;;;25.37;;
6902;SDS011;20232;49.408;8.702;2022-12-18T18:39:25;38.93;;;21.27;;
6902;SDS011;20232;49.408;8.702;2022-12-18T18:41:51;42.97;;;25.60;;
6902;SDS011;20232;49.408;8.702;2022-12-18T18:44:17;45.87;;;26.10;;
6902;SDS011;20232;49.408;8.702;2022-12-18T18:46:46;47.77;;;26.70;;
6902;SDS011;20232;49.408;8.702;2022-12-18T18:49:12;40.93;;;22.50;;
6902;SDS011;20232;49.408;8.702;2022-12-18T18:51:39;37.63;;;21.27;;
6902;SDS011;20232;49.408;8.702;2022-12-18T18:54:05;39.30;;;22.63;;
6902;SDS011;20232;49.408;8.702;2022-12-18T18:56:31;43.43;;;25.27;;
6902;SDS011;20232;49.408;8.702;2022-12-18T18:58:57;44.40;;;24.50;;
6902;SDS011;20232;49.408;8.702;2022-12-18T19:01:24;37.57;;;22.27;;
6902;SDS011;20232;49.408;8.702;2022-12-18T19:03:50;37.53;;;22.33;;
6902;SDS011;20232;49.408;8.702;2022-12-18T19:06:21;38.87;;;22.27;;
6902;SDS011;20232;49.408;8.702;2022-12-18T19:08:49;45.73;;;26.00;;
6902;SDS011;20232;49.408;8.702;2022-12-18T19:11:15;42.13;;;23.70;;
6902;SDS011;20232;49.408;8.702;2022-12-18T19:14:00;34.90;;;19.63;;
6902;SDS011;20232;49.408;8.702;2022-12-18T19:16:29;40.90;;;23.27;;
6902;SDS011;20232;49.408;8.702;2022-12-18T19:18:54;42.30;;;24.77;;
6902;SDS011;20232;49.408;8.702;2022-12-18T19:21:21;42.30;;;24.37;;
6902;SDS011;20232;49.408;8.702;2022-12-18T19:23:47;43.70;;;26.77;;
6902;SDS011;20232;49.408;8.702;2022-12-18T19:26:13;33.20;;;20.73;;
6902;SDS011;20232;49.408;8.702;2022-12-18T19:28:40;34.63;;;20.17;;
6902;SDS011;20232;49.408;8.702;2022-12-18T19:31:06;34.23;;;20.07;;
6902;SDS011;20232;49.408;8.702;2022-12-18T19:33:35;39.07;;;22.97;;
6902;SDS011;20232;49.408;8.702;2022-12-18T19:36:36;39.57;;;23.43;;
6902;SDS011;20232;49.408;8.702;2022-12-18T19:38:56;38.07;;;22.00;;
6902;SDS011;20232;49.408;8.702;2022-12-18T19:41:23;46.87;;;24.93;;
6902;SDS011;20232;49.408;8.702;2022-12-18T19:43:49;35.87;;;22.17;;
6902;SDS011;20232;49.408;8.702;2022-12-18T19:46:17;38.47;;;21.80;;
6902;SDS011;20232;49.408;8.702;2022-12-18T19:48:44;41.63;;;21.83;;
6902;SDS011;20232;49.408;8.702;2022-12-18T19:51:12;43.33;;;26.23;;
6902;SDS011;20232;49.408;8.702;2022-12-18T19:53:43;42.97;;;23.70;;
6902;SDS011;20232;49.408;8.702;2022-12-18T19:56:10;44.53;;;27.20;;
6902;SDS011;20232;49.408;8.702;2022-12-18T19:58:38;39.23;;;24.73;;
6902;SDS011;20232;49.408;8.702;2022-12-18T20:01:04;39.70;;;23.80;;
6902;SDS011;20232;49.408;8.702;2022-12-18T20:03:30;44.30;;;24.37;;
6902;SDS011;20232;49.408;8.702;2022-12-18T20:06:06;38.00;;;22.83;;
6902;SDS011;20232;49.408;8.702;2022-12-18T20:08:44;38.63;;;21.87;;
6902;SDS011;20232;49.408;8.702;2022-12-18T20:11:10;43.67;;;24.90;;
6902;SDS011;20232;49.408;8.702;2022-12-18T20:13:35;36.27;;;20.87;;
6902;SDS011;20232;49.408;8.702;2022-12-18T20:16:01;41.90;;;24.87;;
6902;SDS011;20232;49.408;8.702;2022-12-18T20:18:27;33.87;;;18.33;;
6902;SDS011;20232;49.408;8.702;2022-12-18T20:20:53;41.03;;;23.87;;
6902;SDS011;20232;49.408;8.702;2022-12-18T20:23:19;41.67;;;24.37;;
6902;SDS011;20232;49.408;8.702;2022-12-18T20:25:46;36.23;;;21.13;;
6902;SDS011;20232;49.408;8.702;2022-12-18T20:28:12;36.63;;;22.57;;
6902;SDS011;20232;49.408;8.702;2022-12-18T20:30:37;46.03;;;27.07;;
6902;SDS011;20232;49.408;8.702;2022-12-18T20:33:03;41.87;;;25.43;;
6902;SDS011;20232;49.408;8.702;2022-12-18T20:35:30;39.10;;;23.07;;
6902;SDS011;20232;49.408;8.702;2022-12-18T20:37:57;42.47;;;26.13;;
6902;SDS011;20232;49.408;8.702;2022-12-18T20:40:22;47.53;;;27.97;;
6902;SDS011;20232;49.408;8.702;2022-12-18T20:42:48;41.50;;;25.30;;
6902;SDS011;20232;49.408;8.702;2022-12-18T20:45:14;44.90;;;26.17;;
6902;SDS011;20232;49.408;8.702;2022-12-18T20:47:40;38.77;;;23.90;;
6902;SDS011;20232;49.408;8.702;2022-12-18T20:50:05;45.13;;;25.97;;
6902;SDS011;20232;49.408;8.702;2022-12-18T20:52:31;45.57;;;26.70;;
6902;SDS011;20232;49.408;8.702;2022-12-18T20:54:57;39.63;;;21.50;;
6902;SDS011;20232;49.408;8.702;2022-12-18T20:57:23;42.73;;;26.17;;
6902;SDS011;20232;49.408;8.702;2022-12-18T20:59:48;44.60;;;26.27;;
6902;SDS011;20232;49.408;8.702;2022-12-18T21:02:14;36.77;;;22.87;;
6902;SDS011;20232;49.408;8.702;2022-12-18T21:04:40;38.93;;;22.47;;
6902;SDS011;20232;49.408;8.702;2022-12-18T21:07:05;43.27;;;25.07;;
6902;SDS011;20232;49.408;8.702;2022-12-18T21:09:31;43.03;;;26.13;;
6902;SDS011;20232;49.408;8.702;2022-12-18T21:11:57;42.53;;;25.50;;
6902;SDS011;20232;49.408;8.702;2022-12-18T21:14:43;44.30;;;25.87;;